Ashville, Alabama
Current Conditions -  °F | °C
As of 4:35 PM on Wednesday 22 Oct 2014 (Local Time) from KGAD Reporting Station
Clear Clear  
Wind Chill: 66°   Ceiling: Unl
Heat Index: 66°   Visibility: 10mi
Dew Point: 39°   Wind: 9mph
Humidity: 37%   Direction: 350°N
Pressure: 30.11"   Gusts: NA
Location:  33.84°N, 86.25°W
Report Text: KGAD 222135Z 35008KT 10SM CLR 19/04 A3011 RMK AO1
Loading
Personal Weather Stations






























Interactive Weather Map
Tropical Storm Tracking
New forecast layout! Learn more

10-Day Weather Forecast

Advertisements
Track Severe Weather on mobile